createdAt,value
2019-03-23T00:02:06.447Z,24.65
2019-03-23T00:04:37.765Z,24.50
2019-03-23T00:07:08.013Z,24.18
2019-03-23T00:09:40.700Z,23.77
2019-03-23T00:12:10.619Z,24.03
2019-03-23T00:14:40.612Z,22.98
2019-03-23T00:17:12.183Z,23.60
2019-03-23T00:19:43.203Z,25.00
2019-03-23T00:22:21.238Z,23.50
2019-03-23T00:24:52.375Z,23.20
2019-03-23T00:27:22.553Z,24.18
2019-03-23T00:29:56.766Z,25.03
2019-03-23T00:32:32.152Z,23.57
2019-03-23T00:35:02.056Z,22.70
2019-03-23T00:37:33.454Z,24.33
2019-03-23T00:40:03.351Z,23.17
2019-03-23T00:42:33.257Z,23.10
2019-03-23T00:45:03.709Z,23.80
2019-03-23T00:47:38.189Z,23.65
2019-03-23T00:50:09.003Z,23.97
2019-03-23T00:52:41.484Z,23.87
2019-03-23T00:55:11.481Z,23.53
2019-03-23T00:57:41.417Z,22.53
2019-03-23T01:00:12.217Z,24.30
2019-03-23T01:02:43.738Z,24.03
2019-03-23T01:05:15.067Z,22.10
2019-03-23T01:07:45.987Z,22.37
2019-03-23T01:10:21.331Z,21.42
2019-03-23T01:12:51.228Z,22.73
2019-03-23T01:15:23.959Z,25.23
2019-03-23T01:17:53.873Z,24.47
2019-03-23T01:20:25.997Z,22.77
2019-03-23T01:22:57.095Z,23.03
2019-03-23T01:25:31.085Z,23.95
2019-03-23T01:28:01.128Z,23.70
2019-03-23T01:30:36.596Z,23.47
2019-03-23T01:33:06.628Z,23.03
2019-03-23T01:35:38.271Z,22.85
2019-03-23T01:38:09.912Z,21.57
2019-03-23T01:40:42.027Z,20.47
2019-03-23T01:43:11.929Z,22.80
2019-03-23T01:45:42.380Z,26.40
2019-03-23T01:48:15.193Z,22.40
2019-03-23T01:50:46.193Z,20.23
2019-03-23T01:53:19.635Z,20.57
2019-03-23T01:55:51.266Z,20.27
2019-03-23T01:58:22.040Z,21.10
2019-03-23T02:00:53.310Z,20.63
2019-03-23T02:03:23.217Z,21.62
2019-03-23T02:05:55.371Z,22.40
2019-03-23T02:08:26.021Z,20.93
2019-03-23T02:10:57.129Z,20.53
2019-03-23T02:13:27.029Z,21.43
2019-03-23T02:15:58.227Z,22.57
2019-03-23T02:18:29.740Z,21.60
2019-03-23T02:21:00.332Z,21.35
2019-03-23T02:23:31.262Z,22.13
2019-03-23T02:26:04.347Z,22.02
2019-03-23T02:28:34.869Z,20.50
2019-03-23T02:31:09.645Z,21.07
2019-03-23T02:33:43.746Z,22.80
2019-03-23T02:36:15.927Z,21.23
2019-03-23T02:38:46.471Z,21.30
2019-03-23T02:41:16.890Z,21.62
2019-03-23T02:43:50.292Z,21.50
2019-03-23T02:46:23.568Z,20.72
2019-03-23T02:48:56.871Z,21.77
2019-03-23T02:51:29.966Z,21.80
2019-03-23T02:54:00.552Z,24.70
2019-03-23T02:56:31.839Z,24.52
2019-03-23T02:59:02.498Z,22.80
2019-03-23T03:01:36.868Z,21.53
2019-03-23T03:04:08.938Z,20.10
2019-03-23T03:06:40.997Z,21.93
2019-03-23T03:09:12.032Z,21.87
2019-03-23T03:11:46.308Z,20.67
2019-03-23T03:14:21.681Z,19.45
2019-03-23T03:16:54.714Z,20.70
2019-03-23T03:19:29.276Z,19.95
2019-03-23T03:22:04.235Z,20.70
2019-03-23T03:24:38.471Z,20.60
2019-03-23T03:27:11.100Z,20.53
2019-03-23T03:29:42.336Z,18.80
2019-03-23T03:32:13.570Z,19.83
2019-03-23T03:34:45.561Z,20.53
2019-03-23T03:37:18.398Z,19.98
2019-03-23T03:39:48.446Z,18.97
2019-03-23T03:42:22.590Z,18.32
2019-03-23T03:44:53.969Z,17.80
2019-03-23T03:47:24.620Z,16.62
2019-03-23T03:49:57.717Z,16.93
2019-03-23T03:52:27.947Z,15.55
2019-03-23T03:54:59.523Z,16.43
2019-03-23T03:57:30.837Z,16.83
2019-03-23T04:00:03.482Z,16.07
2019-03-23T04:02:34.486Z,16.15
2019-03-23T04:05:05.007Z,15.47
2019-03-23T04:07:36.457Z,15.93
2019-03-23T04:10:12.120Z,16.45
2019-03-23T04:12:43.572Z,17.20
2019-03-23T04:15:14.274Z,17.80
2019-03-23T04:17:46.418Z,16.50
2019-03-23T04:20:19.125Z,15.50
2019-03-23T04:22:52.217Z,16.33
2019-03-23T04:25:23.448Z,16.45
2019-03-23T04:27:53.287Z,14.57
2019-03-23T04:30:23.196Z,16.55
2019-03-23T04:32:53.592Z,14.83
2019-03-23T04:35:23.489Z,15.00
2019-03-23T04:37:56.528Z,14.93
2019-03-23T04:40:26.404Z,16.93
2019-03-23T04:42:56.642Z,16.83
2019-03-23T04:45:26.638Z,16.52
2019-03-23T04:47:57.278Z,16.27
2019-03-23T04:50:27.168Z,17.90
2019-03-23T04:52:57.079Z,16.50
2019-03-23T04:55:27.056Z,16.90
2019-03-23T04:57:58.732Z,16.40
2019-03-23T05:00:28.660Z,16.50
2019-03-23T05:03:00.302Z,16.35
2019-03-23T05:05:30.178Z,18.17
2019-03-23T05:08:00.420Z,17.23
2019-03-23T05:10:32.961Z,16.40
2019-03-23T05:13:02.885Z,16.30
2019-03-23T05:15:32.847Z,15.72
2019-03-23T05:18:03.528Z,15.70
2019-03-23T05:20:36.232Z,15.58
2019-03-23T05:23:06.088Z,16.37
2019-03-23T05:25:36.593Z,15.83
2019-03-23T05:28:06.523Z,15.67
2019-03-23T05:30:38.363Z,16.03
2019-03-23T05:33:09.005Z,16.00
2019-03-23T05:35:40.160Z,16.90
2019-03-23T05:38:10.172Z,14.00
2019-03-23T05:40:42.341Z,14.73
2019-03-23T05:43:15.193Z,15.70
2019-03-23T05:45:47.310Z,15.20
2019-03-23T05:48:19.017Z,16.15
2019-03-23T05:50:49.650Z,14.60
2019-03-23T05:53:19.538Z,16.10
2019-03-23T05:55:50.191Z,13.80
2019-03-23T05:58:21.918Z,15.30
2019-03-23T06:00:53.297Z,15.13
2019-03-23T06:03:23.271Z,15.03
2019-03-23T06:05:54.057Z,15.00
2019-03-23T06:08:25.222Z,14.40
2019-03-23T06:10:55.130Z,13.33
2019-03-23T06:13:26.924Z,14.50
2019-03-23T06:15:57.775Z,13.90
2019-03-23T06:18:31.336Z,14.50
2019-03-23T06:21:01.592Z,15.80
2019-03-23T06:23:32.298Z,13.87
2019-03-23T06:26:06.361Z,18.20
2019-03-23T06:28:35.497Z,22.75
2019-03-23T06:31:05.941Z,26.93
2019-03-23T06:33:36.770Z,31.67
2019-03-23T06:36:09.934Z,22.52
2019-03-23T06:38:41.289Z,18.80
2019-03-23T06:41:15.232Z,16.00
2019-03-23T06:43:47.544Z,15.87
2019-03-23T06:46:18.796Z,14.95
2019-03-23T06:48:52.643Z,14.90
2019-03-23T06:51:22.812Z,13.62
2019-03-23T06:53:53.928Z,13.80
2019-03-23T06:56:24.622Z,12.90
2019-03-23T06:58:54.680Z,12.35
2019-03-23T07:01:26.221Z,13.90
2019-03-23T07:03:57.438Z,13.97
2019-03-23T07:06:27.328Z,13.10
2019-03-23T07:08:57.436Z,12.77
2019-03-23T07:11:27.900Z,12.60
2019-03-23T07:13:58.495Z,14.00
2019-03-23T07:16:28.360Z,13.53
2019-03-23T07:18:59.325Z,12.93
2019-03-23T07:21:29.183Z,12.70
2019-03-23T07:24:00.186Z,14.13
2019-03-23T07:26:30.072Z,13.00
2019-03-23T07:29:00.590Z,12.30
2019-03-23T07:31:31.331Z,13.32
2019-03-23T07:34:03.191Z,12.07
2019-03-23T07:36:34.923Z,12.47
2019-03-23T07:39:06.882Z,13.20
2019-03-23T07:41:40.559Z,12.67
2019-03-23T07:44:11.235Z,12.95
2019-03-23T07:46:41.211Z,12.77
2019-03-23T07:49:11.737Z,12.40
2019-03-23T07:51:41.856Z,12.63
2019-03-23T07:54:11.953Z,12.60
2019-03-23T07:56:42.343Z,13.93
2019-03-23T07:59:12.255Z,13.60
2019-03-23T08:01:47.689Z,13.40
2019-03-23T08:04:19.626Z,13.30
2019-03-23T08:06:50.188Z,13.60
2019-03-23T08:09:20.638Z,13.20
2019-03-23T08:11:52.975Z,13.93
2019-03-23T08:14:25.774Z,15.00
2019-03-23T08:16:58.770Z,14.00
2019-03-23T08:19:29.636Z,14.33
2019-03-23T08:21:59.525Z,13.27
2019-03-23T08:24:31.389Z,16.00
2019-03-23T08:27:01.437Z,14.37
2019-03-23T08:29:31.381Z,17.40
2019-03-23T08:32:02.009Z,14.07
2019-03-23T08:34:34.971Z,15.50
2019-03-23T08:37:04.573Z,15.70
2019-03-23T08:39:34.468Z,17.80
2019-03-23T08:42:05.870Z,17.73
2019-03-23T08:44:36.463Z,16.65
2019-03-23T08:47:06.277Z,19.37
2019-03-23T08:49:36.798Z,19.40
2019-03-23T08:52:06.708Z,19.10
2019-03-23T08:54:38.438Z,18.53
2019-03-23T08:57:09.180Z,18.83
2019-03-23T08:59:40.576Z,18.73
2019-03-23T09:02:13.020Z,19.13
2019-03-23T09:04:43.307Z,18.13
2019-03-23T09:07:13.220Z,18.90
2019-03-23T09:09:43.427Z,20.13
2019-03-23T09:12:13.699Z,20.53
2019-03-23T09:14:43.808Z,18.45
2019-03-23T09:17:13.721Z,17.90
2019-03-23T09:19:43.660Z,16.83
2019-03-23T09:22:13.581Z,18.70
2019-03-23T09:24:43.489Z,19.50
2019-03-23T09:27:17.951Z,19.00
2019-03-23T09:29:49.535Z,20.43
2019-03-23T09:32:20.700Z,20.00
2019-03-23T09:34:51.930Z,21.07
2019-03-23T09:37:23.053Z,20.82
2019-03-23T09:39:53.504Z,20.23
2019-03-23T09:42:24.289Z,21.10
2019-03-23T09:44:54.928Z,21.13
2019-03-23T09:47:25.599Z,22.53
2019-03-23T09:49:56.416Z,21.10
2019-03-23T09:52:27.032Z,21.43
2019-03-23T09:54:57.621Z,21.30
2019-03-23T09:57:28.000Z,23.43
2019-03-23T09:59:58.364Z,23.23
2019-03-23T10:02:28.580Z,22.80
2019-03-23T10:04:58.525Z,22.83
2019-03-23T10:07:29.529Z,23.60
2019-03-23T10:09:59.445Z,24.07
2019-03-23T10:12:31.355Z,23.13
2019-03-23T10:15:01.299Z,24.77
2019-03-23T10:17:31.225Z,24.17
2019-03-23T10:20:01.179Z,24.67
2019-03-23T10:22:35.596Z,24.33
2019-03-23T10:25:06.579Z,26.33
2019-03-23T10:27:37.746Z,26.60
2019-03-23T10:30:07.760Z,25.73
2019-03-23T10:32:37.681Z,25.83
2019-03-23T10:35:08.508Z,27.00
2019-03-23T10:37:38.576Z,26.60
2019-03-23T10:40:08.917Z,27.10
2019-03-23T10:42:43.490Z,26.80
2019-03-23T10:45:13.741Z,28.33
2019-03-23T10:47:43.727Z,27.50
2019-03-23T10:50:13.723Z,26.93
2019-03-23T10:52:44.940Z,26.67
2019-03-23T10:55:19.280Z,27.47
2019-03-23T10:57:49.829Z,28.00
2019-03-23T11:00:20.375Z,28.85
2019-03-23T11:02:50.266Z,28.00
2019-03-23T11:05:23.617Z,26.97
2019-03-23T11:07:53.509Z,28.93
2019-03-23T11:10:23.792Z,27.03
2019-03-23T11:12:54.427Z,27.37
2019-03-23T11:15:24.384Z,26.87
2019-03-23T11:17:55.262Z,28.03
2019-03-23T11:20:25.160Z,26.67
2019-03-23T11:22:55.075Z,27.70
2019-03-23T11:25:25.261Z,26.87
2019-03-23T11:27:55.599Z,26.80
2019-03-23T11:30:25.984Z,29.23
2019-03-23T11:32:58.534Z,27.40
2019-03-23T11:35:28.989Z,26.68
2019-03-23T11:38:02.548Z,27.20
2019-03-23T11:40:32.577Z,27.10
2019-03-23T11:43:02.815Z,25.50
2019-03-23T11:45:32.736Z,28.20
2019-03-23T11:48:02.666Z,24.93
2019-03-23T11:50:35.536Z,25.85
2019-03-23T11:53:05.434Z,26.00
2019-03-23T11:55:35.493Z,26.45
2019-03-23T11:58:06.928Z,26.03
2019-03-23T12:00:39.589Z,25.70
2019-03-23T12:03:10.575Z,26.40
2019-03-23T12:05:41.449Z,28.00
2019-03-23T12:08:12.563Z,27.10
2019-03-23T12:10:44.194Z,26.40
2019-03-23T12:13:15.769Z,27.47
2019-03-23T12:15:46.822Z,29.47
2019-03-23T12:18:20.740Z,26.35
2019-03-23T12:20:52.106Z,28.55
2019-03-23T12:23:23.226Z,28.07
2019-03-23T12:25:54.362Z,30.00
2019-03-23T12:28:25.964Z,28.17
2019-03-23T12:30:55.842Z,27.17
2019-03-23T12:33:25.751Z,27.40
2019-03-23T12:35:55.703Z,27.75
2019-03-23T12:38:25.675Z,27.53
2019-03-23T12:40:55.593Z,25.80
2019-03-23T12:43:26.479Z,26.77
2019-03-23T12:45:56.379Z,24.80
2019-03-23T12:48:26.321Z,27.30
2019-03-23T12:50:56.264Z,27.90
2019-03-23T12:53:26.229Z,29.67
2019-03-23T12:55:56.212Z,28.67
2019-03-23T12:58:26.297Z,30.73
2019-03-23T13:00:57.967Z,30.47
2019-03-23T13:03:29.982Z,30.83
2019-03-23T13:06:01.464Z,29.93
2019-03-23T13:08:34.485Z,31.50
2019-03-23T13:11:04.506Z,30.90
2019-03-23T13:13:34.809Z,32.73
2019-03-23T13:16:05.397Z,30.00
2019-03-23T13:18:35.951Z,31.68
2019-03-23T13:21:06.057Z,31.77
2019-03-23T13:23:36.983Z,30.43
2019-03-23T13:26:06.822Z,30.03
2019-03-23T13:28:39.040Z,32.23
2019-03-23T13:31:10.044Z,33.03
2019-03-23T13:33:40.082Z,31.00
2019-03-23T13:36:11.545Z,31.20
2019-03-23T13:38:41.907Z,31.03
2019-03-23T13:41:13.062Z,30.30
2019-03-23T13:43:45.908Z,32.10
2019-03-23T13:46:17.991Z,32.55
2019-03-23T13:48:47.880Z,33.13
2019-03-23T13:51:19.402Z,33.10
2019-03-23T13:53:49.308Z,32.43
2019-03-23T13:56:19.221Z,32.07
2019-03-23T13:58:49.152Z,30.80
2019-03-23T14:01:19.056Z,30.90
2019-03-23T14:03:48.966Z,33.40
2019-03-23T14:06:19.309Z,32.63
2019-03-23T14:08:49.708Z,31.80
2019-03-23T14:11:19.632Z,32.70
2019-03-23T14:13:49.909Z,31.73
2019-03-23T14:16:20.144Z,32.57
2019-03-23T14:18:50.274Z,30.30
2019-03-23T14:21:20.349Z,31.60
2019-03-23T14:23:52.087Z,32.27
2019-03-23T14:26:24.490Z,30.90
2019-03-23T14:28:56.152Z,37.03
2019-03-23T14:31:27.004Z,32.78
2019-03-23T14:33:59.336Z,32.27
2019-03-23T14:36:33.681Z,32.60
2019-03-23T14:39:04.753Z,31.87
2019-03-23T14:41:34.657Z,29.57
2019-03-23T14:44:04.827Z,30.95
2019-03-23T14:46:34.732Z,31.93
2019-03-23T14:49:09.873Z,31.70
2019-03-23T14:51:40.064Z,29.50
2019-03-23T14:54:09.937Z,29.23
2019-03-23T14:56:40.092Z,30.43
2019-03-23T14:59:10.356Z,28.43
2019-03-23T15:01:40.784Z,29.90
2019-03-23T15:04:11.117Z,30.17
2019-03-23T15:06:41.583Z,30.53
2019-03-23T15:09:11.421Z,30.60
2019-03-23T15:11:41.408Z,31.40
2019-03-23T15:14:13.518Z,30.00
2019-03-23T15:16:43.439Z,32.43
2019-03-23T15:19:15.482Z,31.17
2019-03-23T15:21:45.309Z,31.17
2019-03-23T15:24:16.813Z,31.87
2019-03-23T15:26:46.714Z,32.13
2019-03-23T15:29:17.205Z,31.33
2019-03-23T15:31:47.118Z,33.17
2019-03-23T15:34:18.537Z,32.65
2019-03-23T15:36:52.331Z,29.30
2019-03-23T15:39:22.436Z,32.20
2019-03-23T15:41:55.988Z,32.63
2019-03-23T15:44:26.445Z,31.40
2019-03-23T15:46:56.439Z,30.40
2019-03-23T15:49:26.649Z,32.90
2019-03-23T15:51:56.764Z,31.23
2019-03-23T15:54:31.627Z,31.03
2019-03-23T15:57:01.874Z,31.13
2019-03-23T15:59:32.898Z,31.70
2019-03-23T16:02:03.105Z,31.30
2019-03-23T16:04:34.109Z,29.20
2019-03-23T16:07:04.086Z,30.30
2019-03-23T16:09:35.817Z,30.57
2019-03-23T16:12:05.774Z,30.02
2019-03-23T16:14:35.983Z,31.95
2019-03-23T16:17:07.800Z,30.53
2019-03-23T16:19:38.565Z,31.10
2019-03-23T16:22:09.017Z,30.97
2019-03-23T16:24:39.909Z,31.03
2019-03-23T16:27:10.549Z,32.20
2019-03-23T16:29:41.315Z,32.40
2019-03-23T16:32:15.191Z,31.93
2019-03-23T16:34:45.622Z,30.90
2019-03-23T16:37:15.800Z,31.82
2019-03-23T16:39:46.384Z,30.67
2019-03-23T16:42:18.215Z,30.77
2019-03-23T16:44:48.446Z,30.70
2019-03-23T16:47:18.590Z,29.00
2019-03-23T16:49:49.514Z,29.50
2019-03-23T16:52:19.606Z,29.60
2019-03-23T16:54:49.480Z,28.93
2019-03-23T16:57:19.675Z,29.80
2019-03-23T16:59:49.650Z,29.47
2019-03-23T17:02:20.454Z,29.40
2019-03-23T17:04:50.714Z,32.07
2019-03-23T17:07:24.305Z,28.75
2019-03-23T17:09:54.229Z,28.03
2019-03-23T17:12:24.195Z,29.45
2019-03-23T17:14:54.119Z,28.33
2019-03-23T17:17:24.118Z,29.50
2019-03-23T17:19:57.462Z,31.03
2019-03-23T17:22:30.536Z,31.50
2019-03-23T17:25:00.457Z,32.47
2019-03-23T17:27:30.488Z,32.30
2019-03-23T17:30:00.596Z,31.70
2019-03-23T17:32:30.514Z,33.50
2019-03-23T17:35:00.531Z,33.10
2019-03-23T17:37:30.860Z,35.38
2019-03-23T17:40:00.756Z,35.03
2019-03-23T17:42:30.684Z,37.23
2019-03-23T17:45:00.603Z,36.90
2019-03-23T17:47:30.516Z,34.03
2019-03-23T17:50:00.487Z,49.53
2019-03-23T17:52:30.636Z,37.60
2019-03-23T17:55:02.677Z,33.30
2019-03-23T17:57:33.289Z,33.87
2019-03-23T18:00:03.257Z,33.40
2019-03-23T18:02:33.365Z,36.75
2019-03-23T18:05:03.312Z,34.57
2019-03-23T18:07:33.302Z,45.63
2019-03-23T18:10:05.797Z,37.90
2019-03-23T18:12:36.667Z,34.35
2019-03-23T18:15:09.405Z,35.03
2019-03-23T18:17:39.449Z,36.47
2019-03-23T18:20:09.995Z,36.40
2019-03-23T18:22:39.935Z,33.67
2019-03-23T18:25:10.577Z,37.80
2019-03-23T18:27:42.178Z,38.80
2019-03-23T18:30:44.417Z,37.83
2019-03-23T18:33:14.621Z,35.03
2019-03-23T18:35:44.844Z,37.17
2019-03-23T18:38:16.696Z,35.60
2019-03-23T18:40:46.692Z,36.90
2019-03-23T18:43:27.050Z,41.00
2019-03-23T18:45:48.697Z,37.75
2019-03-23T18:48:19.816Z,41.68
2019-03-23T18:50:50.096Z,40.23
2019-03-23T18:53:20.305Z,38.53
2019-03-23T18:55:50.240Z,38.77
2019-03-23T18:58:20.284Z,39.50
2019-03-23T19:00:50.391Z,40.60
2019-03-23T19:03:20.787Z,41.90
2019-03-23T19:05:51.194Z,39.97
2019-03-23T19:08:21.133Z,42.50
2019-03-23T19:10:51.544Z,41.03
2019-03-23T19:13:21.451Z,41.30
2019-03-23T19:15:51.360Z,42.53
2019-03-23T19:18:21.308Z,40.53
2019-03-23T19:20:51.700Z,42.30
2019-03-23T19:23:22.289Z,186.18
2019-03-23T19:25:52.905Z,279.97
2019-03-23T19:28:22.787Z,226.13
2019-03-23T19:30:52.942Z,157.70
2019-03-23T19:33:24.296Z,207.20
2019-03-23T19:35:54.542Z,176.00
2019-03-23T19:38:24.813Z,143.77
2019-03-23T19:40:55.828Z,103.95
2019-03-23T19:43:25.761Z,55.90
2019-03-23T19:45:56.715Z,52.78
2019-03-23T19:48:26.700Z,57.37
2019-03-23T19:50:56.686Z,54.63
2019-03-23T19:53:26.725Z,62.90
2019-03-23T19:55:58.393Z,104.63
2019-03-23T19:58:28.295Z,80.37
2019-03-23T20:01:01.545Z,67.00
2019-03-23T20:03:32.206Z,58.23
2019-03-23T20:06:02.211Z,53.90
2019-03-23T20:08:32.086Z,57.17
2019-03-23T20:11:22.720Z,55.47
2019-03-23T20:13:58.730Z,60.60
2019-03-23T20:16:25.075Z,49.27
2019-03-23T20:18:54.946Z,57.60
2019-03-23T20:21:25.071Z,64.58
2019-03-23T20:23:55.297Z,53.80
2019-03-23T20:26:25.627Z,49.03
2019-03-23T20:28:55.571Z,54.85
2019-03-23T20:31:25.576Z,66.40
2019-03-23T20:33:55.597Z,54.00
2019-03-23T20:36:28.209Z,54.33
2019-03-23T20:39:00.405Z,48.63
2019-03-23T20:41:32.554Z,55.90
2019-03-23T20:44:09.492Z,82.07
2019-03-23T20:46:33.975Z,56.88
2019-03-23T20:49:04.163Z,54.60
2019-03-23T20:51:34.713Z,65.40
2019-03-23T20:54:04.866Z,55.60
2019-03-23T20:56:34.889Z,87.08
2019-03-23T20:59:04.795Z,92.40
2019-03-23T21:01:34.747Z,49.08
2019-03-23T21:04:04.725Z,52.43
2019-03-23T21:06:34.629Z,46.23
2019-03-23T21:09:08.870Z,59.67
2019-03-23T21:11:39.245Z,112.22
2019-03-23T21:14:19.640Z,65.63
2019-03-23T21:16:40.779Z,62.50
2019-03-23T21:19:10.814Z,50.20
2019-03-23T21:21:44.189Z,50.60
2019-03-23T21:24:16.065Z,85.03
2019-03-23T21:26:48.406Z,53.23
2019-03-23T21:29:20.107Z,58.98
2019-03-23T21:31:50.532Z,73.37
2019-03-23T21:34:20.736Z,111.30
2019-03-23T21:36:50.836Z,92.92
2019-03-23T21:39:21.246Z,64.42
2019-03-23T21:41:53.803Z,86.23
2019-03-23T21:44:30.848Z,171.20
2019-03-23T21:46:56.992Z,112.90
2019-03-23T21:49:27.869Z,73.53
2019-03-23T21:51:57.756Z,49.50
2019-03-23T21:54:27.969Z,50.10
2019-03-23T21:56:58.598Z,46.60
2019-03-23T21:59:28.545Z,45.97
2019-03-23T22:01:58.469Z,46.75
2019-03-23T22:04:28.413Z,45.80
2019-03-23T22:06:58.327Z,43.00
2019-03-23T22:09:28.344Z,40.43
2019-03-23T22:11:58.320Z,40.13
2019-03-23T22:14:28.232Z,39.43
2019-03-23T22:16:58.173Z,157.37
2019-03-23T22:19:29.954Z,82.40
2019-03-23T22:22:01.159Z,42.30
2019-03-23T22:24:31.000Z,43.63
2019-03-23T22:27:01.177Z,40.43
2019-03-23T22:29:31.144Z,38.57
2019-03-23T22:32:01.089Z,37.53
2019-03-23T22:34:32.159Z,38.53
2019-03-23T22:37:02.236Z,38.57
2019-03-23T22:39:32.234Z,37.90
2019-03-23T22:42:02.191Z,38.07
2019-03-23T22:44:32.584Z,37.53
2019-03-23T22:47:02.511Z,38.73
2019-03-23T22:49:33.363Z,35.97
2019-03-23T22:52:03.277Z,35.90
2019-03-23T22:54:37.565Z,37.00
2019-03-23T22:57:07.509Z,36.67
2019-03-23T22:59:37.424Z,36.57
2019-03-23T23:02:07.373Z,38.07
2019-03-23T23:04:37.534Z,34.90
2019-03-23T23:07:13.265Z,36.50
2019-03-23T23:09:43.432Z,34.90
2019-03-23T23:12:17.075Z,37.67
2019-03-23T23:14:47.561Z,36.50
2019-03-23T23:17:18.666Z,34.48
2019-03-23T23:19:49.627Z,35.37
2019-03-23T23:22:20.170Z,36.60
2019-03-23T23:24:50.108Z,35.80
2019-03-23T23:27:23.541Z,32.67
2019-03-23T23:29:53.404Z,34.83
2019-03-23T23:32:23.317Z,36.20
2019-03-23T23:34:54.352Z,35.43
2019-03-23T23:37:24.564Z,34.25
2019-03-23T23:39:54.496Z,34.40
2019-03-23T23:42:24.444Z,34.03
2019-03-23T23:44:54.763Z,34.97
2019-03-23T23:47:25.029Z,33.37
2019-03-23T23:49:55.476Z,35.23
2019-03-23T23:52:26.596Z,36.30
2019-03-23T23:54:57.911Z,34.70
2019-03-23T23:57:28.211Z,32.88
2019-03-23T23:59:58.116Z,35.40
